Time;durP1;ratioP1;P1;durP2;ratioP2;P2;SDS_P1;SDS_P2;PMS_P1;PMS_P2;Temp;Humidity;BMP_temperature;BMP_pressure;BME280_temperature;BME280_humidity;BME280_pressure;Samples;Min_cycle;Max_cycle;Signal;HPM_P1;HPM_P2
2023/04/21 00:01:49;;;;;;;19.15;16.13;;;;;;;11.27;61.84;99178.38;5067865;28;20037;-72
2023/04/21 00:04:16;;;;;;;19.92;17.15;;;;;;;11.27;61.94;99066.94;5067836;28;20052;-73
2023/04/21 00:06:44;;;;;;;19.25;17.23;;;;;;;11.16;61.80;99045.53;5068192;28;20045;-72
2023/04/21 00:09:11;;;;;;;19.08;17.00;;;;;;;11.22;62.05;99053.97;5068057;28;20036;-73
2023/04/21 00:11:38;;;;;;;19.33;16.30;;;;;;;11.19;62.20;99046.19;5067827;28;20045;-72
2023/04/21 00:14:06;;;;;;;20.35;18.33;;;;;;;10.82;62.25;98996.41;5067757;28;20068;-73
2023/04/21 00:16:32;;;;;;;19.13;16.50;;;;;;;11.17;62.39;99053.41;5067721;28;20178;-72
2023/04/21 00:18:59;;;;;;;18.38;16.08;;;;;;;11.15;62.44;99046.47;5067767;28;20060;-72
2023/04/21 00:21:26;;;;;;;19.40;17.40;;;;;;;11.14;62.41;99050.94;5067490;28;20047;-72
2023/04/21 00:23:53;;;;;;;22.40;18.02;;;;;;;11.11;62.65;99053.78;5067659;28;20048;-72
2023/04/21 00:26:20;;;;;;;22.88;18.50;;;;;;;10.38;62.51;98943.44;5068204;28;20281;-71
2023/04/21 00:28:46;;;;;;;20.52;17.27;;;;;;;11.08;62.52;99048.66;5068268;28;20182;-72
2023/04/21 00:31:14;;;;;;;19.63;16.88;;;;;;;11.02;62.69;99057.00;5067406;28;20041;-72
2023/04/21 00:33:41;;;;;;;18.33;16.42;;;;;;;11.03;62.81;99061.34;5066838;28;20060;-72
2023/04/21 00:36:08;;;;;;;17.50;15.75;;;;;;;11.02;62.67;99051.69;5066652;28;20056;-71
2023/04/21 00:38:35;;;;;;;20.13;16.33;;;;;;;10.78;62.66;99010.78;5067760;28;20040;-72
2023/04/21 00:41:02;;;;;;;17.95;16.10;;;;;;;10.94;62.80;99047.81;5067053;28;20041;-72
2023/04/21 00:43:29;;;;;;;17.40;14.70;;;;;;;10.95;62.72;99045.06;5065894;28;20112;-72
2023/04/21 00:45:56;;;;;;;17.38;15.63;;;;;;;10.74;62.81;99006.59;5067816;28;20086;-72
2023/04/21 00:48:23;;;;;;;17.95;15.30;;;;;;;10.73;62.54;99010.19;5067241;28;20204;-72
2023/04/21 00:50:50;;;;;;;16.92;14.88;;;;;;;10.86;62.82;99040.31;5066811;28;20037;-72
2023/04/21 00:53:17;;;;;;;19.73;16.38;;;;;;;10.86;63.04;99038.53;5066431;28;20045;-72
2023/04/21 00:55:45;;;;;;;18.55;16.08;;;;;;;10.54;63.12;98992.75;5066866;28;20045;-72
2023/04/21 00:58:12;;;;;;;18.20;16.30;;;;;;;10.84;63.08;99043.06;5066907;28;20044;-72
2023/04/21 01:00:39;;;;;;;18.15;16.33;;;;;;;10.83;62.92;99040.53;5066927;28;20044;-72
2023/04/21 01:03:06;;;;;;;18.00;15.73;;;;;;;10.81;62.85;99039.75;5066421;28;20065;-71
2023/04/21 01:05:34;;;;;;;18.52;15.40;;;;;;;10.81;63.01;99048.56;5066646;28;20048;-72
2023/04/21 01:08:02;;;;;;;17.63;15.38;;;;;;;10.78;63.10;99047.91;5066419;28;20086;-71
2023/04/21 01:10:28;;;;;;;16.67;15.02;;;;;;;10.75;63.20;99045.41;5065488;28;20327;-72
2023/04/21 01:12:55;;;;;;;17.80;15.70;;;;;;;10.55;63.10;99014.81;5066233;28;20037;-71
2023/04/21 01:15:22;;;;;;;16.45;14.00;;;;;;;10.45;63.27;99018.94;5066317;28;20040;-72
2023/04/21 01:17:48;;;;;;;18.58;15.65;;;;;;;10.64;63.29;99048.69;5066261;28;20120;-72
2023/04/21 01:20:15;;;;;;;16.83;15.13;;;;;;;10.62;63.22;99047.94;5065360;28;20045;-72
2023/04/21 01:22:44;;;;;;;15.30;13.35;;;;;;;10.62;63.41;99044.44;5069383;28;20293;-71
2023/04/21 01:25:11;;;;;;;15.55;13.93;;;;;;;10.60;63.18;99053.34;5075788;28;20076;-71
2023/04/21 01:27:38;;;;;;;15.25;13.68;;;;;;;10.60;63.40;99052.47;5068843;28;20074;-71
2023/04/21 01:30:07;;;;;;;15.73;13.93;;;;;;;9.19;63.23;98831.38;5065662;28;20037;-71
2023/04/21 01:32:34;;;;;;;17.45;15.60;;;;;;;10.36;63.43;99022.16;5066513;28;20112;-71
2023/04/21 01:35:01;;;;;;;16.63;14.68;;;;;;;10.54;63.38;99045.75;5065921;28;20045;-71
2023/04/21 01:37:31;;;;;;;16.70;14.95;;;;;;;8.92;63.44;98773.03;5066024;28;20037;-71
2023/04/21 01:40:03;;;;;;;15.50;13.77;;;;;;;10.51;63.90;99037.97;5066084;28;20285;-71
2023/04/21 01:42:31;;;;;;;15.43;13.82;;;;;;;10.53;63.61;99037.91;5065605;28;20055;-71
2023/04/21 01:44:58;;;;;;;15.57;13.30;;;;;;;10.50;63.58;99040.72;5065558;28;20091;-71
2023/04/21 01:47:25;;;;;;;14.45;12.93;;;;;;;10.46;63.90;99045.34;5064798;28;20041;-72
2023/04/21 01:49:52;;;;;;;15.43;13.73;;;;;;;10.46;63.86;99047.16;5065873;28;20227;-70
2023/04/21 01:52:19;;;;;;;14.63;13.13;;;;;;;10.47;63.76;99052.34;5065016;28;20056;-71
2023/04/21 01:54:46;;;;;;;15.45;13.82;;;;;;;10.49;63.68;99045.16;5065668;28;20047;-71
2023/04/21 01:57:14;;;;;;;15.48;13.88;;;;;;;10.52;63.72;99044.13;5064677;28;20051;-70
2023/04/21 01:59:40;;;;;;;16.75;14.95;;;;;;;10.52;63.98;99038.84;5065453;28;20068;-71
2023/04/21 02:02:07;;;;;;;17.02;15.30;;;;;;;10.52;64.04;99039.69;5065472;28;20052;-71
2023/04/21 02:04:34;;;;;;;17.30;15.20;;;;;;;10.34;64.10;99008.16;5065422;28;20108;-72
2023/04/21 02:07:01;;;;;;;18.75;16.50;;;;;;;10.53;64.13;99040.53;5065488;28;20167;-72
2023/04/21 02:09:27;;;;;;;21.63;17.98;;;;;;;10.53;64.26;99043.19;5065271;28;20047;-71
2023/04/21 02:11:56;;;;;;;19.48;17.23;;;;;;;10.53;64.69;99037.91;5065064;28;20116;-71
2023/04/21 02:14:25;;;;;;;19.25;16.15;;;;;;;10.55;64.60;99033.34;5065274;28;20098;-71
2023/04/21 02:16:51;;;;;;;16.80;15.02;;;;;;;10.56;64.55;99048.31;5065536;28;20083;-71
2023/04/21 02:19:18;;;;;;;18.80;16.90;;;;;;;10.55;64.47;99038.66;5064671;28;20056;-72
2023/04/21 02:21:45;;;;;;;17.30;15.38;;;;;;;10.56;64.53;99045.66;5065545;28;20041;-71
2023/04/21 02:24:12;;;;;;;17.67;15.30;;;;;;;10.55;64.46;99036.00;5065456;28;20056;-71
2023/04/21 02:26:38;;;;;;;17.73;15.35;;;;;;;10.55;64.40;99034.22;5065105;28;20051;-71
2023/04/21 02:29:05;;;;;;;18.05;16.15;;;;;;;10.56;64.33;99035.91;5064709;28;20045;-71
2023/04/21 02:31:33;;;;;;;17.65;15.05;;;;;;;10.56;64.34;99041.22;5065053;28;20047;-72
2023/04/21 02:34:00;;;;;;;18.38;15.02;;;;;;;10.56;64.43;99038.56;5065381;28;20051;-71
2023/04/21 02:36:27;;;;;;;17.10;15.30;;;;;;;10.23;64.39;98980.50;5065319;28;20048;-71
2023/04/21 02:38:54;;;;;;;17.65;15.77;;;;;;;10.53;64.50;99038.75;5065341;28;20197;-72
2023/04/21 02:41:22;;;;;;;17.80;15.90;;;;;;;10.53;64.47;99041.41;5065602;28;20052;-71
2023/04/21 02:43:48;;;;;;;17.63;15.32;;;;;;;10.51;64.55;99032.69;5065168;28;20416;-72
2023/04/21 02:46:15;;;;;;;17.13;15.43;;;;;;;10.53;64.19;99037.91;5065204;28;20045;-71
2023/04/21 02:48:43;;;;;;;17.80;15.95;;;;;;;10.49;64.42;99036.38;5065291;28;20033;-71
2023/04/21 02:51:12;;;;;;;17.95;16.15;;;;;;;10.13;64.50;99008.47;5065238;28;20047;-71
2023/04/21 02:53:39;;;;;;;17.40;15.48;;;;;;;10.46;64.36;99037.41;5065213;28;20041;-71
2023/04/21 02:56:07;;;;;;;18.38;16.20;;;;;;;10.36;64.57;99023.00;5064883;28;20100;-71
2023/04/21 02:58:35;;;;;;;17.23;15.20;;;;;;;9.74;64.44;98937.53;5067523;28;20197;-72
2023/04/21 03:01:02;;;;;;;21.05;17.02;;;;;;;10.44;64.56;99044.59;5069241;28;20205;-72
2023/04/21 03:03:29;;;;;;;16.90;15.13;;;;;;;10.43;64.71;99042.03;5068569;28;20045;-71
2023/04/21 03:06:01;;;;;;;17.27;15.55;;;;;;;10.41;64.82;99044.78;5068791;28;20056;-71
2023/04/21 03:08:29;;;;;;;21.23;17.30;;;;;;;10.37;64.71;99045.06;5068571;28;20121;-72
2023/04/21 03:10:55;;;;;;;22.67;17.08;;;;;;;10.34;64.83;99040.78;5068911;28;20106;-72
2023/04/21 03:13:23;;;;;;;19.02;16.35;;;;;;;10.35;64.99;99036.34;5068548;28;20036;-72
2023/04/21 03:15:50;;;;;;;19.45;16.15;;;;;;;9.99;64.79;98981.09;5068636;28;20236;-72
2023/04/21 03:18:17;;;;;;;19.02;16.00;;;;;;;9.50;64.84;98920.44;5068257;28;20044;-71
2023/04/21 03:20:43;;;;;;;17.15;15.32;;;;;;;10.30;64.93;99052.50;5068622;28;20303;-71
2023/04/21 03:23:11;;;;;;;18.27;15.32;;;;;;;10.25;65.10;99052.78;5068421;28;20040;-71
2023/04/21 03:25:38;;;;;;;20.30;16.90;;;;;;;9.03;65.16;98852.56;5068442;28;20293;-71
2023/04/21 03:28:05;;;;;;;18.55;16.63;;;;;;;9.50;65.22;98953.03;5068677;28;20083;-72
2023/04/21 03:30:32;;;;;;;18.60;16.65;;;;;;;10.10;65.16;99032.47;5068232;28;20077;-72
2023/04/21 03:32:59;;;;;;;18.33;15.38;;;;;;;10.17;65.29;99043.56;5068202;28;20040;-72
2023/04/21 03:35:26;;;;;;;24.55;17.42;;;;;;;10.16;65.13;99048.00;5068235;28;20051;-71
2023/04/21 03:37:52;;;;;;;17.70;14.48;;;;;;;10.13;65.41;99053.50;5068333;28;20316;-71
2023/04/21 03:40:20;;;;;;;16.52;13.88;;;;;;;10.13;65.33;99052.63;5067924;28;20083;-71
2023/04/21 03:42:47;;;;;;;14.35;12.77;;;;;;;10.10;65.27;99047.50;5067782;28;20103;-71
2023/04/21 03:45:14;;;;;;;18.98;14.18;;;;;;;10.08;65.06;99060.84;5067559;28;20335;-72
2023/04/21 03:47:40;;;;;;;16.55;14.02;;;;;;;10.03;65.27;99052.31;5068055;28;20192;-72
2023/04/21 03:50:08;;;;;;;13.52;12.20;;;;;;;9.79;65.21;99016.66;5067759;28;20044;-72
2023/04/21 03:52:34;;;;;;;16.15;12.82;;;;;;;9.95;65.22;99051.91;5067423;28;20041;-72
2023/04/21 03:55:01;;;;;;;16.70;13.68;;;;;;;9.93;65.30;99053.78;5067649;28;20104;-72
2023/04/21 03:57:29;;;;;;;13.95;12.50;;;;;;;9.91;65.28;99056.53;5067682;28;20048;-72
2023/04/21 03:59:56;;;;;;;14.32;11.73;;;;;;;9.40;65.42;98974.78;5066585;28;20044;-71
2023/04/21 04:02:23;;;;;;;17.02;13.98;;;;;;;9.84;65.34;99057.81;5067304;28;20045;-72
2023/04/21 04:04:49;;;;;;;14.90;12.77;;;;;;;9.82;65.32;99049.09;5066711;28;20037;-72
2023/04/21 04:07:16;;;;;;;14.63;13.13;;;;;;;9.83;65.12;99056.09;5067414;28;20189;-71
2023/04/21 04:09:43;;;;;;;16.00;12.40;;;;;;;9.66;65.19;99034.19;5066843;28;20060;-71
2023/04/21 04:12:10;;;;;;;17.10;14.07;;;;;;;9.81;65.30;99054.47;5067067;28;20091;-71
2023/04/21 04:14:38;;;;;;;19.48;13.90;;;;;;;9.80;65.23;99063.38;5067133;28;20044;-71
2023/04/21 04:17:05;;;;;;;14.90;13.10;;;;;;;9.77;65.33;99058.25;5067687;28;20094;-72
2023/04/21 04:19:31;;;;;;;15.20;13.25;;;;;;;9.75;65.30;99068.06;5067867;28;20052;-71
2023/04/21 04:21:59;;;;;;;16.77;13.27;;;;;;;9.73;65.32;99070.78;5067261;28;20052;-72
2023/04/21 04:24:26;;;;;;;15.23;12.80;;;;;;;9.75;65.25;99068.06;5067048;28;20044;-74
2023/04/21 04:26:53;;;;;;;17.55;14.02;;;;;;;9.74;65.38;99076.94;5067238;28;20063;-73
2023/04/21 04:29:21;;;;;;;21.17;15.32;;;;;;;9.72;65.46;99077.03;5067090;28;20069;-73
2023/04/21 04:31:50;;;;;;;17.38;14.40;;;;;;;9.73;65.61;99078.72;5067202;28;20040;-73
2023/04/21 04:34:17;;;;;;;17.13;15.32;;;;;;;9.71;65.80;99083.25;5067202;28;20048;-73
2023/04/21 04:36:44;;;;;;;18.52;15.30;;;;;;;9.73;65.68;99081.38;5067177;28;20181;-72
2023/04/21 04:39:11;;;;;;;17.15;15.35;;;;;;;9.32;65.56;99013.06;5067032;28;20117;-72
2023/04/21 04:41:38;;;;;;;19.45;17.20;;;;;;;9.76;65.65;99094.44;5066782;28;20048;-72
2023/04/21 04:44:05;;;;;;;20.95;15.77;;;;;;;9.77;65.69;99087.34;5066861;28;20212;-73
2023/04/21 04:46:32;;;;;;;20.73;17.33;;;;;;;9.76;65.79;99094.44;5066665;28;20233;-73
2023/04/21 04:49:01;;;;;;;18.55;16.52;;;;;;;9.77;66.03;99090.84;5066665;28;20053;-73
2023/04/21 04:51:27;;;;;;;18.67;16.65;;;;;;;9.79;65.78;99086.31;5066693;28;20090;-73
2023/04/21 04:53:54;;;;;;;19.10;16.85;;;;;;;9.79;65.97;99090.78;5066839;28;20308;-73
2023/04/21 04:56:22;;;;;;;18.60;16.08;;;;;;;9.80;66.12;99087.19;5066543;28;20037;-72
2023/04/21 04:58:49;;;;;;;22.23;18.38;;;;;;;9.83;65.99;99093.16;5066813;28;20086;-72
2023/04/21 05:01:16;;;;;;;21.17;17.15;;;;;;;9.83;66.13;99087.00;5066576;28;20044;-73
2023/04/21 05:03:44;;;;;;;20.65;17.45;;;;;;;9.85;66.07;99093.94;5066533;28;20094;-73
2023/04/21 05:06:12;;;;;;;19.92;16.52;;;;;;;9.65;66.17;99051.84;5073236;28;20117;-73
2023/04/21 05:08:40;;;;;;;19.48;16.90;;;;;;;9.88;66.22;99095.53;5066887;28;20041;-73
2023/04/21 05:11:07;;;;;;;22.65;17.88;;;;;;;9.73;66.45;99070.78;5066642;28;20108;-73
2023/04/21 05:13:34;;;;;;;18.83;16.95;;;;;;;9.93;66.59;99096.13;5065999;28;20112;-72
2023/04/21 05:16:01;;;;;;;21.38;18.30;;;;;;;9.94;66.66;99096.06;5066308;28;20071;-73
2023/04/21 05:18:28;;;;;;;22.83;19.85;;;;;;;9.94;66.83;99104.00;5066015;28;20087;-72
2023/04/21 05:20:55;;;;;;;19.95;17.90;;;;;;;9.97;66.74;99099.47;5066023;28;20099;-72
2023/04/21 05:23:23;;;;;;;22.08;17.77;;;;;;;9.98;66.81;99096.72;5066483;28;20052;-72
2023/04/21 05:25:50;;;;;;;21.30;18.05;;;;;;;10.01;66.81;99106.28;5066255;28;20051;-73
2023/04/21 05:28:16;;;;;;;19.55;17.42;;;;;;;10.02;67.32;99098.25;5066229;28;20107;-72
2023/04/21 05:30:43;;;;;;;20.45;18.33;;;;;;;8.13;66.72;98788.03;5066210;28;20052;-73
2023/04/21 05:33:09;;;;;;;21.38;19.20;;;;;;;10.09;66.74;99104.06;5065887;28;20102;-73
2023/04/21 05:35:36;;;;;;;22.02;18.13;;;;;;;9.79;66.93;99053.72;5065815;28;20201;-72
2023/04/21 05:38:03;;;;;;;21.17;17.02;;;;;;;10.13;66.98;99109.09;5065952;28;20041;-72
2023/04/21 05:40:31;;;;;;;20.33;17.17;;;;;;;10.17;66.95;99107.97;5065670;28;20040;-72
2023/04/21 05:42:58;;;;;;;26.42;19.00;;;;;;;9.98;66.86;99069.41;5066361;28;20303;-73
2023/04/21 05:45:25;;;;;;;24.83;20.25;;;;;;;10.16;67.00;99100.13;5066144;28;20065;-73
2023/04/21 05:47:51;;;;;;;22.13;19.52;;;;;;;10.27;66.70;99108.31;5065637;28;20048;-73
2023/04/21 05:50:18;;;;;;;35.78;20.35;;;;;;;10.19;66.76;99092.00;5064718;28;20087;-73
2023/04/21 05:52:44;;;;;;;23.33;19.55;;;;;;;10.37;66.66;99117.44;5065654;28;20053;-73
2023/04/21 05:55:11;;;;;;;23.38;19.23;;;;;;;10.41;66.38;99120.75;5065542;28;20048;-73
2023/04/21 05:57:39;;;;;;;20.25;18.10;;;;;;;10.47;66.53;99115.09;5065067;28;20037;-73
2023/04/21 06:00:09;;;;;;;22.95;19.00;;;;;;;10.49;66.83;99119.34;5065643;28;20052;-72
2023/04/21 06:02:36;;;;;;;21.20;17.02;;;;;;;7.21;66.03;98565.31;5065905;28;20094;-73
2023/04/21 06:05:03;;;;;;;18.65;16.35;;;;;;;10.58;65.90;99121.47;5064387;28;20044;-73
2023/04/21 06:07:29;;;;;;;19.13;14.93;;;;;;;10.66;65.45;99115.72;5065553;28;20041;-73
2023/04/21 06:09:57;;;;;;;17.80;14.82;;;;;;;10.68;65.33;99115.63;5065272;28;20112;-72
2023/04/21 06:12:23;;;;;;;17.70;15.00;;;;;;;10.81;64.86;99127.25;5065159;28;20037;-73
2023/04/21 06:14:56;;;;;;;22.50;16.08;;;;;;;10.55;64.74;99070.44;5065280;28;20205;-73
2023/04/21 06:17:23;;;;;;;18.77;15.77;;;;;;;10.97;64.37;99128.03;5065610;28;20045;-73
2023/04/21 06:19:51;;;;;;;18.40;14.57;;;;;;;11.09;64.09;99115.81;5065365;28;20039;-73
2023/04/21 06:22:18;;;;;;;17.83;15.93;;;;;;;11.01;63.71;99083.63;5065148;28;20049;-73
2023/04/21 06:24:45;;;;;;;16.02;14.25;;;;;;;11.36;63.45;99124.72;5065129;28;20253;-73
2023/04/21 06:27:12;;;;;;;15.70;13.65;;;;;;;11.47;63.24;99122.25;5065296;28;20056;-72
2023/04/21 06:29:39;;;;;;;20.10;15.80;;;;;;;11.68;62.79;99113.91;5065292;28;20045;-73
2023/04/21 06:32:07;;;;;;;17.33;15.35;;;;;;;11.91;62.25;99115.94;5065738;28;20064;-72
2023/04/21 06:34:34;;;;;;;17.75;14.38;;;;;;;12.12;61.48;99119.91;5069567;28;20040;-73
2023/04/21 06:37:01;;;;;;;16.02;13.07;;;;;;;11.99;60.59;99055.22;5069094;28;20104;-73
2023/04/21 06:39:28;;;;;;;18.02;14.63;;;;;;;11.42;60.21;98921.84;5069322;28;20108;-73
2023/04/21 06:41:56;;;;;;;13.75;11.68;;;;;;;12.79;59.58;99110.13;5069330;28;20252;-73
2023/04/21 06:44:23;;;;;;;15.63;12.13;;;;;;;12.99;58.82;99108.75;5068974;28;20324;-73
2023/04/21 06:46:50;;;;;;;13.15;11.45;;;;;;;13.25;58.17;99108.75;5068890;28;20201;-74
2023/04/21 06:49:18;;;;;;;14.15;12.48;;;;;;;13.45;57.25;99102.91;5069181;28;20188;-73
2023/04/21 06:51:45;;;;;;;11.82;10.48;;;;;;;13.67;56.73;99105.75;5068814;28;20032;-73
2023/04/21 06:54:11;;;;;;;13.40;10.75;;;;;;;13.73;56.47;99110.63;5068949;28;20285;-73
2023/04/21 06:56:38;;;;;;;13.68;11.10;;;;;;;13.69;56.57;99109.16;5069068;28;20099;-73
2023/04/21 06:59:05;;;;;;;15.85;12.50;;;;;;;13.59;56.34;99081.47;5068736;28;20124;-73
2023/04/21 07:01:31;;;;;;;17.70;13.50;;;;;;;13.87;55.87;99074.16;5068867;28;20045;-73
2023/04/21 07:03:58;;;;;;;14.48;12.10;;;;;;;14.41;55.28;99103.88;5068534;28;20112;-73
2023/04/21 07:06:27;;;;;;;14.50;12.02;;;;;;;14.79;54.63;99105.53;5068412;28;20049;-73
2023/04/21 07:08:53;;;;;;;14.13;10.30;;;;;;;14.83;53.75;99066.97;5068630;28;20236;-73
2023/04/21 07:11:20;;;;;;;11.98;9.52;;;;;;;15.24;53.52;99107.31;5068390;28;20045;-73
2023/04/21 07:13:47;;;;;;;9.25;7.93;;;;;;;15.40;52.75;99110.47;5068535;28;20040;-73
2023/04/21 07:16:13;;;;;;;15.95;8.93;;;;;;;15.53;52.46;99113.03;5068479;28;20044;-74
2023/04/21 07:18:40;;;;;;;10.68;8.13;;;;;;;15.61;52.47;99109.75;5068360;28;20048;-73
2023/04/21 07:21:07;;;;;;;13.63;8.55;;;;;;;15.21;52.21;99032.78;5068279;28;20056;-73
2023/04/21 07:23:36;;;;;;;10.43;8.60;;;;;;;15.63;51.68;99102.44;5068220;28;20049;-74
2023/04/21 07:26:02;;;;;;;11.63;8.02;;;;;;;15.74;52.30;99112.31;5068015;28;20036;-74
2023/04/21 07:28:29;;;;;;;11.38;7.63;;;;;;;15.96;51.62;99098.91;5068314;28;20170;-73
2023/04/21 07:30:56;;;;;;;11.65;7.68;;;;;;;16.06;50.97;99107.03;5067219;28;20037;-73
2023/04/21 07:33:23;;;;;;;9.35;7.45;;;;;;;15.99;50.91;99099.50;5067879;28;20074;-74
2023/04/21 07:35:50;;;;;;;11.57;8.00;;;;;;;15.68;50.48;99058.41;5068250;28;20102;-73
2023/04/21 07:38:16;;;;;;;13.32;7.40;;;;;;;15.85;50.89;99074.88;5067989;28;20293;-74
2023/04/21 07:40:45;;;;;;;12.90;7.70;;;;;;;16.20;49.89;99104.94;5068161;28;20236;-74
2023/04/21 07:43:11;;;;;;;10.50;7.90;;;;;;;16.36;50.03;99099.16;5067454;28;20037;-73
2023/04/21 07:45:38;;;;;;;8.35;6.80;;;;;;;16.51;49.44;99108.59;5067648;28;20067;-74
2023/04/21 07:48:06;;;;;;;9.20;6.63;;;;;;;16.56;49.20;99105.53;5066743;28;20040;-73
2023/04/21 07:50:34;;;;;;;16.67;6.97;;;;;;;16.19;48.90;99052.44;5066703;28;20079;-74
2023/04/21 07:53:01;;;;;;;12.45;8.25;;;;;;;16.27;48.89;99055.31;5067860;28;20064;-73
2023/04/21 07:55:28;;;;;;;8.60;6.63;;;;;;;16.71;49.13;99108.78;5067580;28;20047;-73
2023/04/21 07:57:56;;;;;;;8.18;6.30;;;;;;;16.93;48.61;99100.63;5067577;28;20037;-74
2023/04/21 08:00:22;;;;;;;9.23;7.18;;;;;;;16.85;46.55;99061.13;5067819;28;20146;-74
2023/04/21 08:02:49;;;;;;;11.52;6.68;;;;;;;16.99;47.60;99111.66;5067212;28;20033;-71
2023/04/21 08:05:16;;;;;;;14.73;6.70;;;;;;;16.98;48.42;99117.16;5067417;28;20071;-71
2023/04/21 08:07:42;;;;;;;7.68;6.00;;;;;;;16.46;48.25;99084.03;5067533;28;20037;-71
2023/04/21 08:10:11;;;;;;;9.68;6.05;;;;;;;16.39;48.79;99117.63;5067626;28;20048;-72
2023/04/21 08:12:37;;;;;;;11.95;6.10;;;;;;;16.50;48.79;99116.75;5067234;28;20352;-73
2023/04/21 08:15:07;;;;;;;7.53;6.25;;;;;;;16.77;47.51;99106.44;5067837;28;20072;-73
2023/04/21 08:17:34;;;;;;;10.65;6.60;;;;;;;17.01;47.53;99111.53;5067713;28;20067;-73
2023/04/21 08:20:01;;;;;;;10.18;6.28;;;;;;;17.16;47.11;99110.22;5067363;28;20091;-73
2023/04/21 08:22:28;;;;;;;7.55;5.90;;;;;;;17.36;46.71;99121.06;5067608;28;20303;-73
2023/04/21 08:24:55;;;;;;;11.65;7.03;;;;;;;17.10;46.98;99057.19;5067393;28;20169;-72
2023/04/21 08:27:21;;;;;;;10.93;6.28;;;;;;;17.59;46.35;99101.16;5066618;28;20043;-73
2023/04/21 08:29:49;;;;;;;8.48;6.10;;;;;;;17.69;46.06;99093.19;5068127;28;20040;-72
2023/04/21 08:32:22;;;;;;;10.38;5.75;;;;;;;17.70;45.39;99097.56;5069025;28;20037;-72
2023/04/21 08:34:50;;;;;;;7.40;5.72;;;;;;;17.79;45.96;99094.91;5067095;28;20037;-73
2023/04/21 08:37:18;;;;;;;9.73;5.90;;;;;;;17.83;45.19;99084.75;5066735;28;20292;-73
2023/04/21 08:39:45;;;;;;;10.85;6.10;;;;;;;17.97;45.26;99091.56;5065807;28;20039;-72
2023/04/21 08:42:13;;;;;;;7.25;5.50;;;;;;;18.04;44.90;99101.59;5066827;28;20261;-73
2023/04/21 08:44:40;;;;;;;10.60;5.07;;;;;;;18.07;44.39;99085.22;5066539;28;20067;-73
2023/04/21 08:47:10;;;;;;;11.50;4.70;;;;;;;18.05;43.96;99084.53;5066517;28;20305;-73
2023/04/21 08:49:39;;;;;;;11.07;4.93;;;;;;;17.85;44.27;99091.69;5066702;28;20036;-73
2023/04/21 08:52:06;;;;;;;9.73;5.20;;;;;;;17.84;44.52;99092.66;5065840;28;20040;-73
2023/04/21 08:54:35;;;;;;;8.45;5.47;;;;;;;17.38;43.91;99012.81;5066663;28;20091;-72
2023/04/21 08:57:03;;;;;;;10.07;4.55;;;;;;;17.82;44.73;99065.16;5066172;28;20316;-72
2023/04/21 08:59:30;;;;;;;9.75;4.80;;;;;;;17.53;43.89;99007.91;5066503;28;20277;-73
2023/04/21 09:02:07;;;;;;;9.82;4.90;;;;;;;18.08;41.95;99083.41;5065867;28;20043;-72
2023/04/21 09:04:34;;;;;;;9.60;5.43;;;;;;;18.16;43.95;99071.00;5065290;28;20131;-73
2023/04/21 09:07:02;;;;;;;8.13;5.45;;;;;;;18.26;43.24;99076.38;5065688;28;20051;-72
2023/04/21 09:09:29;;;;;;;10.80;5.47;;;;;;;18.02;43.73;99043.72;5066396;28;20036;-73
2023/04/21 09:11:57;;;;;;;9.63;5.78;;;;;;;18.34;43.92;99083.72;5066241;28;20047;-72
2023/04/21 09:14:31;;;;;;;10.40;4.85;;;;;;;18.28;41.88;99079.75;5065996;28;20285;-72
2023/04/21 09:17:03;;;;;;;10.05;4.75;;;;;;;18.10;42.60;99059.97;5066290;28;20285;-72
2023/04/21 09:19:29;;;;;;;6.72;4.72;;;;;;;18.31;42.89;99081.31;5066304;28;20043;-72
2023/04/21 09:21:57;;;;;;;6.90;5.15;;;;;;;18.26;42.92;99076.38;5065846;28;20044;-73
2023/04/21 09:24:25;;;;;;;9.45;5.25;;;;;;;18.30;43.11;99074.25;5064997;28;20360;-72
2023/04/21 09:26:53;;;;;;;8.55;4.75;;;;;;;18.47;42.99;99071.72;5065754;28;20041;-72
2023/04/21 09:29:22;;;;;;;9.50;4.65;;;;;;;18.65;41.13;99089.81;5065841;28;20041;-72
2023/04/21 09:31:50;;;;;;;9.77;5.50;;;;;;;18.54;42.57;99077.38;5065723;28;20037;-72
2023/04/21 09:34:19;;;;;;;11.75;5.65;;;;;;;18.30;41.93;99072.41;5065932;28;20048;-72
2023/04/21 09:36:47;;;;;;;9.77;5.88;;;;;;;18.05;42.52;99073.78;5064615;28;20044;-72
2023/04/21 09:39:14;;;;;;;11.27;5.40;;;;;;;17.94;43.19;99090.00;5065641;28;20124;-72
2023/04/21 09:41:43;;;;;;;9.52;5.10;;;;;;;18.05;42.29;99068.44;5065611;28;20047;-72
2023/04/21 09:44:10;;;;;;;11.38;5.20;;;;;;;18.18;43.25;99073.53;5065097;28;20198;-72
2023/04/21 09:46:37;;;;;;;12.48;5.40;;;;;;;18.19;43.35;99059.13;5065596;28;20037;-72
2023/04/21 09:49:05;;;;;;;8.05;4.35;;;;;;;18.18;41.89;99058.28;5064856;28;20055;-72
2023/04/21 09:51:32;;;;;;;8.38;4.80;;;;;;;17.91;42.48;99031.28;5065395;28;20116;-73
2023/04/21 09:54:06;;;;;;;10.00;4.43;;;;;;;17.98;41.70;99045.84;5065828;28;20052;-72
2023/04/21 09:56:37;;;;;;;12.18;4.70;;;;;;;17.99;42.43;99052.91;5065361;28;20045;-74
2023/04/21 09:59:10;;;;;;;9.80;4.30;;;;;;;18.15;40.74;99047.84;5065270;28;20241;-72
2023/04/21 10:01:37;;;;;;;10.13;4.60;;;;;;;18.09;40.75;99026.09;5065448;28;20040;-72
2023/04/21 10:04:04;;;;;;;8.15;4.13;;;;;;;18.35;41.25;99043.31;5064288;28;20048;-71
2023/04/21 10:06:32;;;;;;;6.82;3.95;;;;;;;18.54;39.63;99048.72;5065063;28;20036;-72
2023/04/21 10:08:59;;;;;;;8.55;4.10;;;;;;;18.66;40.59;99049.41;5065101;28;20059;-73
2023/04/21 10:11:26;;;;;;;9.15;4.88;;;;;;;18.72;40.24;99051.53;5065291;28;20107;-72
2023/04/21 10:13:53;;;;;;;5.63;4.32;;;;;;;18.75;39.61;99059.28;5065356;28;20043;-73
2023/04/21 10:16:22;;;;;;;11.98;4.30;;;;;;;18.61;39.90;99040.09;5065391;28;20051;-72
2023/04/21 10:18:49;;;;;;;8.13;4.45;;;;;;;18.73;40.48;99039.78;5065167;28;20308;-73
2023/04/21 10:21:20;;;;;;;7.32;3.70;;;;;;;18.83;38.73;99046.00;5065289;28;20067;-73
2023/04/21 10:23:48;;;;;;;10.80;4.78;;;;;;;18.87;39.18;99050.09;5065121;28;20036;-73
2023/04/21 10:26:19;;;;;;;8.85;4.38;;;;;;;18.83;37.92;99043.31;5064004;28;20064;-73
2023/04/21 10:28:54;;;;;;;5.90;3.63;;;;;;;18.80;39.76;99029.34;5065206;28;20087;-72
2023/04/21 10:31:25;;;;;;;13.80;4.72;;;;;;;18.88;37.69;99018.72;5064992;28;20044;-72
2023/04/21 10:34:18;;;;;;;10.60;4.78;;;;;;;18.94;35.69;99028.88;5065148;28;20044;-72
2023/04/21 10:37:15;;;;;;;7.07;3.67;;;;;;;18.06;35.94;98892.31;5065716;28;20289;-72
2023/04/21 10:39:55;;;;;;;14.23;4.65;;;;;;;18.40;34.95;98952.53;5060042;28;20248;-73
2023/04/21 10:42:27;;;;;;;8.30;3.85;;;;;;;18.80;37.20;99018.59;5064811;28;20051;-72
2023/04/21 10:45:02;;;;;;;8.77;4.55;;;;;;;18.93;36.02;99013.75;5064561;28;20049;-73
2023/04/21 10:47:36;;;;;;;9.98;4.65;;;;;;;18.98;35.04;99016.84;5064751;28;20049;-72
2023/04/21 10:50:12;;;;;;;9.80;4.15;;;;;;;19.05;35.55;99017.09;5064816;28;20044;-72
2023/04/21 10:52:39;;;;;;;8.82;4.97;;;;;;;19.20;37.90;99015.63;5065089;28;20094;-72
2023/04/21 10:55:09;;;;;;;7.95;4.57;;;;;;;19.22;37.33;99005.59;5064621;28;20048;-72
2023/04/21 10:57:36;;;;;;;11.18;5.60;;;;;;;19.31;37.41;99002.00;5065411;28;20045;-72
2023/04/21 11:00:05;;;;;;;7.07;5.30;;;;;;;19.28;36.92;99004.16;5065038;28;20060;-72
2023/04/21 11:02:35;;;;;;;6.88;4.47;;;;;;;19.14;35.58;99026.97;5064678;28;20048;-72
2023/04/21 11:05:02;;;;;;;9.10;4.35;;;;;;;18.95;37.16;98987.59;5064744;28;20112;-72
2023/04/21 11:07:29;;;;;;;10.48;3.92;;;;;;;18.96;37.57;98999.19;5063766;28;20327;-72
2023/04/21 11:09:58;;;;;;;12.30;4.78;;;;;;;19.10;37.24;99001.41;5064848;28;20073;-72
2023/04/21 11:12:28;;;;;;;9.57;4.63;;;;;;;19.12;37.38;98992.19;5064911;28;20040;-73
2023/04/21 11:14:55;;;;;;;9.02;4.30;;;;;;;19.22;37.48;98993.00;5064606;28;20055;-72
2023/04/21 11:17:23;;;;;;;10.43;4.95;;;;;;;19.28;37.00;98993.41;5064642;28;20051;-72
2023/04/21 11:19:52;;;;;;;9.05;4.88;;;;;;;19.09;36.40;98964.78;5067597;28;20043;-72
2023/04/21 11:22:20;;;;;;;9.05;4.75;;;;;;;19.06;36.97;98965.09;5067997;28;20045;-73
2023/04/21 11:24:49;;;;;;;8.18;3.33;;;;;;;19.11;36.44;98958.28;5068339;28;20041;-73
2023/04/21 11:27:16;;;;;;;9.70;4.93;;;;;;;19.13;36.36;98955.44;5067402;28;20297;-74